ADDS TAF Board (Experimental) INFO Settings
IDs: Format: Expanded Condensed

KSTL - St Louis/Lambert Int, MO, US

Issued at 1017 UTC 30 Apr 2016
Updated at: 1115 UTC 30 Apr 2016
Time1051Z 30/12Z 30/13Z 30/14Z 30/15Z 30/16Z 30/17Z 30/18Z 30/19Z 30/20Z 30/21Z 30/22Z 30/23Z 01/00Z
Type OBS PRVL
  [TEMP]  
PRVL PRVL PRVL PRVL PRVL PRVL PRVL PRVL PRVL PRVL PRVL PRVL
VIS 4 4 >6 >6 >6 >6 >6 >6 >6 >6 >6 >6 >6 >6
CIG 6 15
  [8]  
10 10 10 10 10 35 35 35 35 35 35 120
Cover OVC OVC
  [BKN]  
OVC OVC OVC OVC OVC BKN BKN BKN BKN BKN BKN BKN
FltCat IFR MVFR
  [IFR]  
MVFR MVFR MVFR MVFR MVFR VFR VFR VFR VFR VFR VFR VFR
WX -RA BR -SHRA BR
  [--]  
-- -- -- -- -- -- -- -- -- -- -- VCTS
WDir 110 100
[100]
140 140 140 140 140 200 200 200 200 200 200 220
WSpd 11 12
  [12]  
15 15 15 15 15 12 12 12 12 12 12 7
WGst -- --
  [--]  
25 25 25 25 25 -- -- -- -- -- -- --
R06/24
XWnd -8 -7 -15 -15 -15 -15 -15 -8 -8 -8 -8 -8 -8 -3
XGst -- 0 -24 -24 -24 -24 -24 -- -- -- -- -- -- --
HWnd 8 10 3 3 3 3 3 -9 -9 -9 -9 -9 -9 -6
HGst -- 0 6 6 6 6 6 -- -- -- -- -- -- --
R11/29
XWnd 2 4 -5 -5 -5 -5 -5 -12 -12 -12 -12 -12 -12 -7
XGst -- 0 -8 -8 -8 -8 -8 -- -- -- -- -- -- --
HWnd 11 11 14 14 14 14 14 2 2 2 2 2 2 -1
HGst -- 0 24 24 24 24 24 -- -- -- -- -- -- --
R12/30
XWnd 2 4 -5 -5 -5 -5 -5 -12 -12 -12 -12 -12 -12 -7
XGst -- 0 -8 -8 -8 -8 -8 -- -- -- -- -- -- --
HWnd 11 11 14 14 14 14 14 2 2 2 2 2 2 -1
HGst -- 0 24 24 24 24 24 -- -- -- -- -- -- --

NOTE: TEMPO conditions in [brackets]. Keep in mind TEMPO conditions might be better (lower impact) than prevailing conditions.

Raw TAF
KSTL 301017Z 3010/0112 10012KT 4SM -SHRA BR SCT008 BKN015 OVC050
  TEMPO 3010/3013 BKN008
  FM301300 14015G25KT P6SM OVC010
  FM301800 20012KT P6SM BKN035
  FM010000 22007KT P6SM VCTS SCT040CB BKN120
  FM010300 27005KT P6SM SCT040 BKN120


Raw METAR
KSTL 301051Z COR 11011KT 4SM -RA BR BKN006 OVC011 15/13 A2982 RMK AO2 SLP094 P0004 T01500133 $
KSTL 301022Z 11011KT 4SM -RA BR OVC006 15/13 A2984 RMK AO2 P0003 $
KSTL 300951Z 09013KT 4SM -RA BR SCT008 BKN016 OVC046 15/13 A2984 RMK AO2 SLP101 P0021 T01500133 $
KSTL 300851Z 11009KT 4SM -RA BR FEW005 BKN031 OVC040 15/13 A2988 RMK AO2 SLP112 P0009 60031 T01500133 58011 $

METAR Board
Radar Display
Forecast Discussion

TAF Board Legend

Potential Impact
Threat None Slight Moderate High
Visibility (sm) ≥5.1 5.1>X≥3 3>X≥1 <1
Ceiling (100 ft) ≥30.1 30.1>X≥10 10>X≥5 <5
Wind Speed (kt) <10 10≤X<20 20≤X<30 ≥30
Wind Gust (kt) <15 15≤X<25 25≤X<35 ≥35
Weather No Wx Reported VCTS,-TS,-FZRA,SN TS,FZRA +TS,+FZRA,+SN